Harnell Park, Minnesota
Current Conditions -  °F | °C
As of 7:55 PM on Friday 19 Dec 2014 (Local Time) from KDLH Reporting Station
Light Snow Light Snow  
Wind Chill: -10°   Ceiling: 500
Heat Index: -4°   Visibility: 4mi
Dew Point: -6°   Wind: 9mph
Humidity: 91%   Direction: 150°SSE
Pressure: 30.15"   Gusts: NA
Location:  46.8859°N, 92.4258°W
Report Text: KDLH 200155Z 15008KT 4SM -SN BR OVC005 M04/M06 A3015 RMK AO2 SLP235 P0000 T10441056
Loading
Personal Weather Stations






























Interactive Weather Map New forecast layout! Learn more

10-Day Weather Forecast

Advertisements
Track Severe Weather on mobile